Time;durP1;ratioP1;P1;durP2;ratioP2;P2;SDS_P1;SDS_P2;PMS_P1;PMS_P2;Temp;Humidity;BMP_temperature;BMP_pressure;BME280_temperature;BME280_humidity;BME280_pressure;Samples;Min_cycle;Max_cycle;Signal;HPM_P1;HPM_P2
2021/07/15 00:01:40;;;;;;;0.00;0.00;;;24.00;72.80;;;;;;5057705;28;20033;-89
2021/07/15 00:04:05;;;;;;;0.20;0.00;;;23.90;73.10;;;;;;5057802;28;20504;-90
2021/07/15 00:06:31;;;;;;;0.00;0.00;;;23.90;73.50;;;;;;5057478;28;20037;-90
2021/07/15 00:08:57;;;;;;;0.08;0.08;;;23.90;73.70;;;;;;5057682;28;20543;-90
2021/07/15 00:11:28;;;;;;;0.00;0.00;;;23.80;74.30;;;;;;5058888;28;20040;-90
2021/07/15 00:13:56;;;;;;;0.00;0.00;;;23.80;74.70;;;;;;5075813;28;20083;-90
2021/07/15 00:16:23;;;;;;;0.00;0.00;;;23.70;74.90;;;;;;5057344;28;20029;-90
2021/07/15 00:18:50;;;;;;;0.00;0.00;;;23.70;75.30;;;;;;5057502;28;20047;-90
2021/07/15 00:21:18;;;;;;;0.00;0.00;;;23.70;75.90;;;;;;5057078;28;20033;-90
2021/07/15 00:23:45;;;;;;;0.10;0.10;;;23.60;76.20;;;;;;5057297;28;20048;-90
2021/07/15 00:26:12;;;;;;;0.10;0.00;;;23.60;76.70;;;;;;5057010;28;20183;-90
2021/07/15 00:28:41;;;;;;;0.00;0.00;;;23.50;77.00;;;;;;5075009;28;20044;-89
2021/07/15 00:31:08;;;;;;;0.00;0.00;;;23.50;77.10;;;;;;5073824;28;20064;-90
2021/07/15 00:33:35;;;;;;;0.00;0.00;;;23.50;77.30;;;;;;5057186;28;20041;-89
2021/07/15 00:36:02;;;;;;;0.00;0.00;;;23.50;77.60;;;;;;5061099;28;20040;-88
2021/07/15 00:38:29;;;;;;;0.00;0.00;;;23.40;78.20;;;;;;5071088;28;20017;-89
2021/07/15 00:40:54;;;;;;;0.00;0.00;;;23.40;78.00;;;;;;5071168;28;20033;-88
2021/07/15 00:43:21;;;;;;;0.00;0.00;;;23.40;78.40;;;;;;5059612;28;20186;-89
2021/07/15 00:45:47;;;;;;;0.00;0.00;;;23.40;78.70;;;;;;5079418;28;20016;-90
2021/07/15 00:48:13;;;;;;;0.00;0.00;;;23.30;79.00;;;;;;5057512;28;20051;-89
2021/07/15 00:50:39;;;;;;;0.00;0.00;;;23.30;79.30;;;;;;5056989;28;20055;-89
2021/07/15 00:53:06;;;;;;;0.00;0.00;;;23.20;79.80;;;;;;5056940;28;20041;-89
2021/07/15 00:55:40;;;;;;;0.00;0.00;;;23.20;80.30;;;;;;5056792;28;20489;-89
2021/07/15 00:58:07;;;;;;;;;;;23.20;81.50;;;;;;5057163;28;20382;-89
2021/07/15 01:00:33;;;;;;;0.00;0.00;;;23.10;80.80;;;;;;5056574;28;19926;-89
2021/07/15 01:02:59;;;;;;;0.00;0.00;;;23.10;81.50;;;;;;5056331;28;20128;-89
2021/07/15 01:05:32;;;;;;;0.00;0.00;;;23.10;82.00;;;;;;5056539;28;20055;-89
2021/07/15 01:07:59;;;;;;;0.00;0.00;;;23.00;82.60;;;;;;5056370;28;20124;-89
2021/07/15 01:10:29;;;;;;;0.00;0.00;;;22.90;82.90;;;;;;5056182;28;20033;-88
2021/07/15 01:13:14;;;;;;;0.00;0.00;;;22.90;83.10;;;;;;5074471;28;20071;-90
2021/07/15 01:16:06;;;;;;;0.00;0.00;;;22.90;83.00;;;;;;5056535;28;20033;-90
2021/07/15 01:18:46;;;;;;;0.00;0.00;;;22.90;83.80;;;;;;5056041;28;20047;-90
2021/07/15 01:21:49;;;;;;;0.00;0.00;;;22.90;83.60;;;;;;5056221;28;20052;-90
2021/07/15 01:24:49;;;;;;;0.00;0.00;;;22.90;83.60;;;;;;5073423;28;20485;-90
2021/07/15 01:27:27;;;;;;;0.00;0.00;;;22.80;84.20;;;;;;5056417;28;20074;-89
2021/07/15 01:30:08;;;;;;;0.00;0.00;;;22.80;85.30;;;;;;5074855;28;20025;-90
2021/07/15 01:32:56;;;;;;;0.00;0.00;;;22.80;84.90;;;;;;5077143;28;20104;-89
2021/07/15 01:35:52;;;;;;;0.10;0.10;;;22.70;85.00;;;;;;5056553;28;20034;-89
2021/07/15 01:38:22;;;;;;;0.10;0.10;;;22.70;85.80;;;;;;5054138;28;20135;-89
2021/07/15 01:40:56;;;;;;;0.00;0.00;;;22.70;85.90;;;;;;5055297;28;20032;-90
2021/07/15 01:43:46;;;;;;;0.00;0.00;;;22.70;86.10;;;;;;5055894;28;20048;-90
2021/07/15 01:46:13;;;;;;;0.10;0.10;;;22.60;85.90;;;;;;5055665;28;20037;-88
2021/07/15 01:48:40;;;;;;;0.00;0.00;;;22.60;86.80;;;;;;5056095;28;20033;-89
2021/07/15 01:51:06;;;;;;;0.00;0.00;;;22.60;87.20;;;;;;5073655;28;20425;-89
2021/07/15 01:53:32;;;;;;;0.00;0.00;;;22.50;87.30;;;;;;5055983;28;20036;-90
2021/07/15 01:55:59;;;;;;;0.00;0.00;;;22.50;87.40;;;;;;5073817;28;20071;-90
2021/07/15 01:58:28;;;;;;;0.00;0.00;;;22.40;87.50;;;;;;5055810;28;20513;-89
2021/07/15 02:00:55;;;;;;;0.00;0.00;;;22.50;87.90;;;;;;5055770;28;20115;-89
2021/07/15 02:03:21;;;;;;;0.00;0.00;;;22.40;88.00;;;;;;5055643;28;20198;-88
2021/07/15 02:05:48;;;;;;;0.00;0.00;;;22.40;88.30;;;;;;5073523;28;20017;-89
2021/07/15 02:08:14;;;;;;;0.00;0.00;;;22.40;88.60;;;;;;5073683;28;20047;-90
2021/07/15 02:10:42;;;;;;;0.00;0.00;;;22.30;88.80;;;;;;5055621;28;20028;-90
2021/07/15 02:13:10;;;;;;;0.00;0.00;;;22.30;89.10;;;;;;5056741;28;20045;-90
2021/07/15 02:15:38;;;;;;;0.00;0.00;;;22.30;89.00;;;;;;5072102;28;20102;-89
2021/07/15 02:18:08;;;;;;;0.00;0.00;;;22.30;89.20;;;;;;5055353;28;20497;-90
2021/07/15 02:20:34;;;;;;;0.00;0.00;;;22.30;89.50;;;;;;5055420;28;20028;-89
2021/07/15 02:23:01;;;;;;;0.00;0.00;;;22.30;89.60;;;;;;5055266;28;20437;-90
2021/07/15 02:25:28;;;;;;;0.00;0.00;;;22.20;89.60;;;;;;5073265;28;20107;-90
2021/07/15 02:27:56;;;;;;;0.00;0.00;;;22.30;90.00;;;;;;5055181;28;20044;-89
2021/07/15 02:30:22;;;;;;;0.00;0.00;;;22.20;90.10;;;;;;5055260;28;20078;-90
2021/07/15 02:32:58;;;;;;;0.00;0.00;;;22.30;90.00;;;;;;5073187;28;20045;-90
2021/07/15 02:35:36;;;;;;;0.00;0.00;;;22.30;89.70;;;;;;5055186;28;20083;-90
2021/07/15 02:38:06;;;;;;;0.00;0.00;;;22.40;90.00;;;;;;5055128;28;20040;-89
2021/07/15 02:40:32;;;;;;;0.00;0.00;;;22.30;90.00;;;;;;5055483;28;20031;-89
2021/07/15 02:42:58;;;;;;;0.00;0.00;;;22.40;89.90;;;;;;5055068;28;20139;-89
2021/07/15 02:45:24;;;;;;;0.00;0.00;;;22.40;90.00;;;;;;5055111;28;20043;-89
2021/07/15 02:47:51;;;;;;;0.00;0.00;;;22.40;90.50;;;;;;5055055;28;20052;-89
2021/07/15 02:50:21;;;;;;;0.08;0.08;;;22.40;90.30;;;;;;5055111;28;20040;-90
2021/07/15 02:52:48;;;;;;;0.00;0.00;;;22.40;90.40;;;;;;5057917;28;20067;-89
2021/07/15 02:55:15;;;;;;;0.00;0.00;;;22.40;90.50;;;;;;5058961;28;20043;-90
2021/07/15 02:57:47;;;;;;;0.00;0.00;;;22.40;90.60;;;;;;5059146;28;20063;-89
2021/07/15 03:00:15;;;;;;;0.10;0.10;;;22.40;90.70;;;;;;5059144;28;20037;-90
2021/07/15 03:03:07;;;;;;;0.20;0.03;;;22.40;90.60;;;;;;5059347;28;20049;-90
2021/07/15 03:05:46;;;;;;;0.00;0.00;;;22.40;90.40;;;;;;5062480;28;20079;-90
2021/07/15 03:08:22;;;;;;;0.00;0.00;;;22.40;90.50;;;;;;5076294;28;20033;-89
2021/07/15 03:10:54;;;;;;;0.00;0.00;;;22.40;90.40;;;;;;5076932;28;20032;-90
2021/07/15 03:13:21;;;;;;;0.00;0.00;;;22.50;90.70;;;;;;5060153;28;20040;-89
2021/07/15 03:15:47;;;;;;;0.00;0.00;;;22.40;90.80;;;;;;5058579;28;20037;-89
2021/07/15 03:18:18;;;;;;;0.00;0.00;;;22.40;90.80;;;;;;5058398;28;20032;-89
2021/07/15 03:20:45;;;;;;;0.00;0.00;;;22.50;90.70;;;;;;5058545;28;20390;-88
2021/07/15 03:23:13;;;;;;;0.10;0.10;;;22.50;90.50;;;;;;5058354;28;20054;-90
2021/07/15 03:25:46;;;;;;;0.00;0.00;;;22.60;90.40;;;;;;5058253;28;20029;-91
2021/07/15 03:28:14;;;;;;;0.00;0.00;;;22.60;90.20;;;;;;5058266;28;20071;-89
2021/07/15 03:30:40;;;;;;;0.00;0.00;;;22.60;89.90;;;;;;5058168;28;20058;-90
2021/07/15 03:33:06;;;;;;;0.00;0.00;;;22.70;89.40;;;;;;5058134;28;20044;-90
2021/07/15 03:35:33;;;;;;;0.00;0.00;;;22.80;88.80;;;;;;5058117;28;20086;-89
2021/07/15 03:37:59;;;;;;;0.03;0.03;;;22.90;88.40;;;;;;5075971;28;20029;-89
2021/07/15 03:40:27;;;;;;;0.00;0.00;;;23.00;87.70;;;;;;5058128;28;20056;-90
2021/07/15 03:42:54;;;;;;;0.03;0.03;;;23.00;86.90;;;;;;5058003;28;20059;-89
2021/07/15 03:45:22;;;;;;;0.00;0.00;;;23.20;86.00;;;;;;5058145;28;20037;-89
2021/07/15 03:47:51;;;;;;;0.00;0.00;;;23.30;85.00;;;;;;5057999;28;20044;-90
2021/07/15 03:50:25;;;;;;;0.00;0.00;;;23.30;84.80;;;;;;5057958;28;20448;-89
2021/07/15 03:52:54;;;;;;;0.00;0.00;;;23.50;84.00;;;;;;5057883;28;20095;-90
2021/07/15 03:55:27;;;;;;;0.00;0.00;;;23.50;83.50;;;;;;5074423;28;20033;-89
2021/07/15 03:57:54;;;;;;;0.00;0.00;;;23.60;83.40;;;;;;5056578;28;20036;-90
2021/07/15 04:00:25;;;;;;;0.00;0.00;;;23.70;83.10;;;;;;5057222;28;20041;-89
2021/07/15 04:02:56;;;;;;;0.00;0.00;;;23.80;82.80;;;;;;5075513;28;20044;-90
2021/07/15 04:05:23;;;;;;;0.00;0.00;;;23.90;82.50;;;;;;5057671;28;20059;-89
2021/07/15 04:07:51;;;;;;;0.00;0.00;;;24.10;82.00;;;;;;5057430;28;20398;-89
2021/07/15 04:10:18;;;;;;;0.00;0.00;;;24.20;81.00;;;;;;5057205;28;20056;-90
2021/07/15 04:12:46;;;;;;;0.00;0.00;;;24.20;80.50;;;;;;5059062;28;20041;-90
2021/07/15 04:15:18;;;;;;;0.00;0.00;;;24.40;79.60;;;;;;5057702;28;20024;-91
2021/07/15 04:18:06;;;;;;;0.00;0.00;;;24.40;79.00;;;;;;5057315;28;20393;-89
2021/07/15 04:20:33;;;;;;;0.00;0.00;;;24.60;77.90;;;;;;5057409;28;20028;-90
2021/07/15 04:23:00;;;;;;;0.00;0.00;;;24.60;77.10;;;;;;5057738;28;20048;-90
2021/07/15 04:25:27;;;;;;;0.00;0.00;;;24.60;76.80;;;;;;5057432;28;20028;-90
2021/07/15 04:27:58;;;;;;;0.08;0.00;;;24.70;76.50;;;;;;5057538;28;20490;-89
2021/07/15 04:30:24;;;;;;;0.00;0.00;;;24.80;76.20;;;;;;5057429;28;20068;-90
2021/07/15 04:32:58;;;;;;;0.00;0.00;;;24.80;76.00;;;;;;5057203;28;20037;-90
2021/07/15 04:35:26;;;;;;;0.00;0.00;;;25.00;75.20;;;;;;5075081;28;20482;-89
2021/07/15 04:37:53;;;;;;;0.00;0.00;;;25.10;75.00;;;;;;5057230;28;20482;-89
2021/07/15 04:40:21;;;;;;;0.00;0.00;;;25.10;74.30;;;;;;5073617;28;20037;-90
2021/07/15 04:42:51;;;;;;;0.00;0.00;;;25.20;74.40;;;;;;5056918;28;20044;-90
2021/07/15 04:45:18;;;;;;;0.00;0.00;;;25.40;74.20;;;;;;5057352;28;20083;-89
2021/07/15 04:47:46;;;;;;;0.00;0.00;;;25.50;73.40;;;;;;5057152;28;20131;-89
2021/07/15 04:50:21;;;;;;;0.00;0.00;;;25.60;73.20;;;;;;5057293;28;20024;-90
2021/07/15 04:52:53;;;;;;;0.00;0.00;;;25.70;72.90;;;;;;5074506;28;20082;-90
2021/07/15 04:55:20;;;;;;;0.10;0.00;;;25.80;72.40;;;;;;5056867;28;20513;-90
2021/07/15 04:57:50;;;;;;;0.00;0.00;;;25.90;72.10;;;;;;5056972;28;20457;-90
2021/07/15 05:00:16;;;;;;;0.00;0.00;;;26.10;72.20;;;;;;5058090;28;20115;-90
2021/07/15 05:02:42;;;;;;;0.00;0.00;;;26.20;71.50;;;;;;5071688;28;20052;-89
2021/07/15 05:05:10;;;;;;;0.00;0.00;;;26.40;71.30;;;;;;5071714;28;20032;-88
2021/07/15 05:07:37;;;;;;;0.00;0.00;;;26.50;71.20;;;;;;5070269;28;20121;-89
2021/07/15 05:10:08;;;;;;;0.00;0.00;;;26.70;70.00;;;;;;5057258;28;20548;-90
2021/07/15 05:12:34;;;;;;;0.00;0.00;;;27.00;69.80;;;;;;5075647;28;20102;-90
2021/07/15 05:15:03;;;;;;;0.00;0.00;;;27.30;68.90;;;;;;5054324;28;20095;-91
2021/07/15 05:17:30;;;;;;;0.00;0.00;;;27.60;68.70;;;;;;5053670;28;20036;-92
2021/07/15 05:19:56;;;;;;;0.00;0.00;;;27.90;66.20;;;;;;5072393;28;20040;-90
2021/07/15 05:22:22;;;;;;;0.00;0.00;;;28.20;65.70;;;;;;5053491;28;20349;-91
2021/07/15 05:24:48;;;;;;;0.00;0.00;;;28.50;65.10;;;;;;5054688;28;20036;-92
2021/07/15 05:27:14;;;;;;;0.00;0.00;;;28.80;63.30;;;;;;5055052;28;20029;-90
2021/07/15 05:29:40;;;;;;;0.00;0.00;;;29.10;62.40;;;;;;5055052;28;20033;-91
2021/07/15 05:32:06;;;;;;;0.00;0.00;;;29.30;59.90;;;;;;5056724;28;20064;-90
2021/07/15 05:34:32;;;;;;;0.00;0.00;;;29.40;60.50;;;;;;5073686;28;20520;-90
2021/07/15 05:36:57;;;;;;;0.00;0.00;;;29.70;59.60;;;;;;5056636;28;20037;-93
2021/07/15 05:39:23;;;;;;;0.00;0.00;;;30.00;59.10;;;;;;5056284;28;20040;-92
2021/07/15 05:41:49;;;;;;;0.00;0.00;;;30.30;58.50;;;;;;5056663;28;20039;-93
2021/07/15 05:44:15;;;;;;;0.00;0.00;;;30.60;57.20;;;;;;5057433;28;20132;-91
2021/07/15 05:46:43;;;;;;;0.00;0.00;;;30.70;57.00;;;;;;5057283;28;20047;-90
2021/07/15 05:49:10;;;;;;;0.00;0.00;;;30.90;56.50;;;;;;5055972;28;20036;-91
2021/07/15 05:51:35;;;;;;;0.00;0.00;;;31.10;56.30;;;;;;5056783;28;20128;-92
2021/07/15 05:54:02;;;;;;;0.00;0.00;;;31.40;56.50;;;;;;5058638;28;20489;-90
2021/07/15 05:56:27;;;;;;;0.00;0.00;;;31.70;56.10;;;;;;5074054;28;20036;-90
2021/07/15 05:58:53;;;;;;;0.00;0.00;;;32.00;55.50;;;;;;5075234;28;20108;-92
2021/07/15 06:01:19;;;;;;;0.00;0.00;;;32.40;54.80;;;;;;5057528;28;20037;-91
2021/07/15 06:03:46;;;;;;;0.00;0.00;;;32.60;54.80;;;;;;5073852;28;20031;-91
2021/07/15 06:06:12;;;;;;;0.00;0.00;;;32.90;55.00;;;;;;5061425;28;20370;-91
2021/07/15 06:08:38;;;;;;;0.00;0.00;;;33.30;54.40;;;;;;5073036;28;20035;-90
2021/07/15 06:11:04;;;;;;;0.00;0.00;;;33.60;54.00;;;;;;5054696;28;20157;-90
2021/07/15 06:13:29;;;;;;;0.00;0.00;;;33.90;53.80;;;;;;5073083;28;20016;-91
2021/07/15 06:15:55;;;;;;;0.00;0.00;;;34.10;53.20;;;;;;5074469;28;20370;-90
2021/07/15 06:18:21;;;;;;;0.00;0.00;;;34.40;53.60;;;;;;5055837;28;20064;-91
2021/07/15 06:20:47;;;;;;;0.00;0.00;;;34.70;52.20;;;;;;5054921;28;20036;-90
2021/07/15 06:23:13;;;;;;;0.00;0.00;;;35.00;51.60;;;;;;5055304;28;20060;-91
2021/07/15 06:25:39;;;;;;;0.00;0.00;;;35.30;50.80;;;;;;5056516;28;20090;-92
2021/07/15 06:28:05;;;;;;;0.00;0.00;;;35.40;49.80;;;;;;5058873;28;20041;-91
2021/07/15 06:30:34;;;;;;;0.00;0.00;;;35.50;49.90;;;;;;5060870;28;20095;-90
2021/07/15 06:32:59;;;;;;;0.00;0.00;;;35.70;49.80;;;;;;5059323;28;20037;-90
2021/07/15 06:35:25;;;;;;;0.00;0.00;;;36.00;49.70;;;;;;5059728;28;20036;-92
2021/07/15 06:37:54;;;;;;;0.00;0.00;;;36.30;49.40;;;;;;5063038;28;20067;-91
2021/07/15 06:40:22;;;;;;;0.00;0.00;;;36.50;48.40;;;;;;5059805;28;20040;-92
2021/07/15 06:42:49;;;;;;;0.00;0.00;;;36.60;48.40;;;;;;5059261;28;20045;-91
2021/07/15 06:45:17;;;;;;;0.00;0.00;;;36.80;47.80;;;;;;5057482;28;20032;-93
2021/07/15 06:47:43;;;;;;;0.00;0.00;;;36.80;47.70;;;;;;5042215;28;20154;-90
2021/07/15 06:50:11;;;;;;;0.00;0.00;;;37.00;47.20;;;;;;5056971;28;20024;-90
2021/07/15 06:52:37;;;;;;;0.00;0.00;;;37.30;47.20;;;;;;5056428;28;20037;-90
2021/07/15 06:55:05;;;;;;;0.00;0.00;;;37.40;46.80;;;;;;5056639;28;20028;-91
2021/07/15 06:57:33;;;;;;;0.00;0.00;;;37.60;46.40;;;;;;5057205;28;20076;-92
2021/07/15 06:59:59;;;;;;;0.00;0.00;;;37.90;45.70;;;;;;5059200;28;20551;-91
2021/07/15 07:02:25;;;;;;;0.00;0.00;;;38.00;45.80;;;;;;5060086;28;20036;-91
2021/07/15 07:04:52;;;;;;;0.00;0.00;;;38.30;44.90;;;;;;5059337;28;20111;-91
2021/07/15 07:07:18;;;;;;;0.00;0.00;;;38.50;44.70;;;;;;5059503;28;20044;-91
2021/07/15 07:09:43;;;;;;;0.00;0.00;;;38.70;45.00;;;;;;5042070;28;20370;-90
2021/07/15 07:12:09;;;;;;;0.10;0.10;;;39.10;43.90;;;;;;5059408;28;20059;-91
2021/07/15 07:14:35;;;;;;;0.10;0.10;;;39.30;43.70;;;;;;5059268;28;20052;-92
2021/07/15 07:17:01;;;;;;;0.00;0.00;;;39.70;43.80;;;;;;5076593;28;20036;-90
2021/07/15 07:19:26;;;;;;;0.10;0.10;;;40.00;43.60;;;;;;5073745;28;20036;-90
2021/07/15 07:21:52;;;;;;;0.00;0.00;;;40.50;42.10;;;;;;5074676;28;20039;-91
2021/07/15 07:24:18;;;;;;;0.10;0.10;;;40.40;41.60;;;;;;5057381;28;20505;-90
2021/07/15 07:26:43;;;;;;;0.03;0.03;;;40.40;41.40;;;;;;5058623;28;20028;-90
2021/07/15 07:29:09;;;;;;;0.10;0.10;;;40.70;41.30;;;;;;5060188;28;20042;-91
2021/07/15 07:31:35;;;;;;;0.10;0.10;;;40.80;40.00;;;;;;5061360;28;20051;-90
2021/07/15 07:34:00;;;;;;;0.10;0.10;;;40.90;39.40;;;;;;5068920;28;20037;-91
2021/07/15 07:38:54;;;;;;;0.10;0.10;;;40.70;38.00;;;;;;5091048;28;20063;-92
2021/07/15 07:41:20;;;;;;;0.10;0.10;;;40.80;37.70;;;;;;5078154;28;20028;-91
2021/07/15 07:43:45;;;;;;;0.10;0.10;;;40.90;37.50;;;;;;5059834;28;20044;-91
2021/07/15 07:46:15;;;;;;;0.10;0.10;;;41.20;37.60;;;;;;5060548;28;20028;-91
2021/07/15 07:48:41;;;;;;;0.10;0.10;;;41.60;36.90;;;;;;5062910;28;20089;-91
2021/07/15 07:51:06;;;;;;;0.10;0.10;;;41.90;36.70;;;;;;5061226;28;20111;-90
2021/07/15 07:53:32;;;;;;;0.10;0.10;;;42.20;36.80;;;;;;5062336;28;20033;-92
2021/07/15 07:55:58;;;;;;;0.10;0.10;;;42.40;36.10;;;;;;5063222;28;20044;-92
2021/07/15 07:58:25;;;;;;;0.10;0.10;;;42.40;34.70;;;;;;5064224;28;20032;-92
2021/07/15 08:00:51;;;;;;;0.10;0.10;;;42.30;35.10;;;;;;5065097;28;20486;-90
2021/07/15 08:03:19;;;;;;;0.10;0.10;;;42.30;34.30;;;;;;5064752;28;20062;-92
2021/07/15 08:05:51;;;;;;;0.00;0.00;;;41.90;34.30;;;;;;5068528;28;20040;-93
2021/07/15 08:08:18;;;;;;;0.10;0.10;;;41.90;34.70;;;;;;5065499;28;20036;-91
2021/07/15 08:10:53;;;;;;;0.10;0.10;;;42.30;34.00;;;;;;5065458;28;20029;-92
2021/07/15 08:13:19;;;;;;;0.10;0.10;;;42.20;34.00;;;;;;5067763;28;20063;-93
2021/07/15 08:15:50;;;;;;;0.10;0.10;;;42.10;34.80;;;;;;5068382;28;20021;-91
2021/07/15 08:18:28;;;;;;;0.10;0.10;;;42.50;35.00;;;;;;5077021;28;20033;-93
2021/07/15 08:23:21;;;;;;;0.10;0.10;;;43.10;33.70;;;;;;5036797;28;20045;-91
2021/07/15 08:25:47;;;;;;;0.10;0.10;;;42.80;32.80;;;;;;5019238;28;20072;-92
2021/07/15 08:28:13;;;;;;;0.08;0.08;;;42.70;33.10;;;;;;5036946;28;20080;-92
2021/07/15 08:30:39;;;;;;;0.10;0.10;;;42.60;33.20;;;;;;5018821;28;20033;-91
2021/07/15 08:33:06;;;;;;;0.10;0.10;;;42.50;33.70;;;;;;5019097;28;20570;-90
2021/07/15 08:35:33;;;;;;;0.10;0.10;;;42.70;33.90;;;;;;5019228;28;20040;-91
2021/07/15 08:37:59;;;;;;;0.05;0.05;;;42.80;33.60;;;;;;5018025;28;20037;-91
2021/07/15 08:40:26;;;;;;;0.10;0.10;;;42.50;34.50;;;;;;5035978;28;20037;-92
2021/07/15 08:42:53;;;;;;;0.10;0.10;;;42.50;33.90;;;;;;5017790;28;20042;-93
2021/07/15 08:45:19;;;;;;;0.08;0.08;;;42.50;33.90;;;;;;5019003;28;20032;-92
2021/07/15 08:47:45;;;;;;;0.10;0.10;;;42.90;33.90;;;;;;5019262;28;20120;-92
2021/07/15 08:50:14;;;;;;;0.10;0.10;;;43.50;33.60;;;;;;5020629;28;20030;-92
2021/07/15 08:52:41;;;;;;;0.10;0.10;;;43.50;33.40;;;;;;5021217;28;20040;-92
2021/07/15 08:57:34;;;;;;;0.10;0.10;;;44.00;33.40;;;;;;5038188;28;20094;-91
2021/07/15 09:00:00;;;;;;;0.10;0.10;;;43.90;33.30;;;;;;5035285;28;20033;-91
2021/07/15 09:02:26;;;;;;;0.10;0.10;;;43.60;33.50;;;;;;5023489;28;20053;-91
2021/07/15 09:04:52;;;;;;;0.10;0.10;;;43.50;33.90;;;;;;5019157;28;20041;-91
2021/07/15 09:07:19;;;;;;;0.10;0.10;;;43.60;33.60;;;;;;5015250;28;20069;-91
2021/07/15 09:09:46;;;;;;;0.10;0.10;;;43.60;33.40;;;;;;5017186;28;20517;-90
2021/07/15 09:12:16;;;;;;;0.20;0.20;;;43.70;33.70;;;;;;5018639;28;20048;-92
2021/07/15 09:14:47;;;;;;;0.10;0.10;;;43.90;32.70;;;;;;5018320;28;20041;-93
2021/07/15 09:17:14;;;;;;;0.10;0.10;;;43.50;33.80;;;;;;5019413;28;20034;-91
2021/07/15 09:19:41;;;;;;;0.10;0.10;;;43.40;33.30;;;;;;5050317;28;20044;-92
2021/07/15 09:22:13;;;;;;;0.10;0.10;;;43.30;33.40;;;;;;5036303;28;20064;-89
2021/07/15 09:24:44;;;;;;;0.10;0.10;;;43.30;33.40;;;;;;5025535;28;20427;-92
2021/07/15 09:27:12;;;;;;;0.10;0.10;;;42.90;33.70;;;;;;5017500;28;20045;-91
2021/07/15 09:29:38;;;;;;;0.10;0.10;;;42.50;33.80;;;;;;5018444;28;20022;-92
2021/07/15 09:32:05;;;;;;;0.08;0.08;;;42.30;34.30;;;;;;5022708;28;20060;-92
2021/07/15 09:34:34;;;;;;;0.10;0.10;;;42.50;34.80;;;;;;5017689;28;20045;-91
2021/07/15 09:37:12;;;;;;;0.10;0.10;;;43.10;34.40;;;;;;5017475;28;20363;-92
2021/07/15 09:39:46;;;;;;;0.10;0.10;;;43.80;34.50;;;;;;5017583;28;20481;-91
2021/07/15 09:42:22;;;;;;;0.10;0.10;;;43.80;34.30;;;;;;5017727;28;20056;-91
2021/07/15 09:44:52;;;;;;;0.10;0.10;;;44.00;34.30;;;;;;5018369;28;20049;-91
2021/07/15 09:47:39;;;;;;;0.10;0.10;;;44.00;33.90;;;;;;5035406;28;20038;-92
2021/07/15 09:50:17;;;;;;;0.10;0.10;;;43.90;34.30;;;;;;5016595;28;20570;-92
2021/07/15 09:52:44;;;;;;;0.10;0.10;;;44.10;34.60;;;;;;5034788;28;20129;-91
2021/07/15 09:55:23;;;;;;;0.10;0.10;;;44.10;34.70;;;;;;5016411;28;20068;-91
2021/07/15 09:58:06;;;;;;;0.10;0.10;;;44.30;34.00;;;;;;5018263;28;20069;-92
2021/07/15 10:00:46;;;;;;;0.10;0.10;;;44.60;34.30;;;;;;5016252;28;20124;-92
2021/07/15 10:03:14;;;;;;;0.10;0.10;;;45.10;34.20;;;;;;5020228;28;20100;-91
2021/07/15 10:05:54;;;;;;;0.10;0.10;;;45.40;33.80;;;;;;5017476;28;20041;-90
2021/07/15 10:08:32;;;;;;;0.10;0.10;;;45.90;33.30;;;;;;5025443;28;20033;-92
2021/07/15 10:11:36;;;;;;;0.20;0.20;;;46.10;32.80;;;;;;5024077;28;20038;-92
2021/07/15 10:14:11;;;;;;;0.20;0.20;;;46.00;33.30;;;;;;5019559;28;20076;-92
2021/07/15 10:16:39;;;;;;;0.20;0.20;;;46.40;33.10;;;;;;5018810;28;20069;-92
2021/07/15 10:19:07;;;;;;;0.20;0.20;;;46.90;33.20;;;;;;5020093;28;20068;-93
2021/07/15 10:21:35;;;;;;;0.20;0.20;;;47.20;32.70;;;;;;5021320;28;20053;-93
2021/07/15 10:24:25;;;;;;;0.20;0.20;;;47.30;32.50;;;;;;5022434;28;20092;-92
2021/07/15 10:26:57;;;;;;;0.20;0.20;;;47.70;32.20;;;;;;5018586;28;20033;-91
2021/07/15 10:29:24;;;;;;;0.20;0.20;;;47.90;32.30;;;;;;5019454;28;20033;-93
2021/07/15 10:31:51;;;;;;;0.20;0.20;;;48.20;32.20;;;;;;5020513;28;20052;-92
2021/07/15 10:34:17;;;;;;;0.30;0.30;;;48.40;32.30;;;;;;5018983;28;20124;-93
2021/07/15 10:36:44;;;;;;;0.30;0.30;;;48.50;32.40;;;;;;5022648;28;20499;-93
2021/07/15 10:39:14;;;;;;;0.20;0.20;;;48.70;32.00;;;;;;5022050;28;20149;-93
2021/07/15 10:41:45;;;;;;;0.20;0.20;;;48.40;31.60;;;;;;5021104;28;20414;-94
2021/07/15 10:44:12;;;;;;;0.20;0.20;;;48.10;31.90;;;;;;5021325;28;20042;-93
2021/07/15 10:46:38;;;;;;;0.20;0.20;;;48.10;32.30;;;;;;5020067;28;20041;-92
2021/07/15 10:49:08;;;;;;;0.30;0.30;;;48.00;31.80;;;;;;5019498;28;20029;-93
2021/07/15 10:51:36;;;;;;;0.30;0.30;;;48.20;32.00;;;;;;5018859;28;20046;-93
2021/07/15 10:54:03;;;;;;;0.30;0.30;;;48.40;32.30;;;;;;5022902;28;20121;-93
2021/07/15 11:00:22;;;;;;;0.30;0.30;;;48.80;32.80;;;;;;5085156;28;20037;-91
2021/07/15 11:03:42;;;;;;;0.30;0.30;;;49.30;32.60;;;;;;5047111;28;20049;-88
2021/07/15 11:06:08;;;;;;;0.30;0.30;;;49.50;32.50;;;;;;5032373;28;20033;-90
2021/07/15 11:08:49;;;;;;;0.30;0.30;;;49.50;33.30;;;;;;5056042;28;20374;-91
